sensor_id;sensor_type;location;lat;lon;timestamp;pressure;altitude;pressure_sealevel;temperature;humidity
20009;BME280;10165;42.662;23.260;2022-07-23T00:00:15;94426.00;;;26.15;38.54
20009;BME280;10165;42.662;23.260;2022-07-23T00:02:42;94424.19;;;25.96;38.90
20009;BME280;10165;42.662;23.260;2022-07-23T00:05:09;94428.81;;;25.99;38.51
20009;BME280;10165;42.662;23.260;2022-07-23T00:07:37;94424.97;;;25.97;38.44
20009;BME280;10165;42.662;23.260;2022-07-23T00:10:04;94422.81;;;26.04;38.93
20009;BME280;10165;42.662;23.260;2022-07-23T00:12:31;94430.34;;;26.00;39.10
20009;BME280;10165;42.662;23.260;2022-07-23T00:14:58;94429.47;;;26.03;38.94
20009;BME280;10165;42.662;23.260;2022-07-23T00:17:25;94431.00;;;26.04;39.05
20009;BME280;10165;42.662;23.260;2022-07-23T00:19:51;94438.78;;;25.93;39.28
20009;BME280;10165;42.662;23.260;2022-07-23T00:22:20;94435.16;;;25.96;39.38
20009;BME280;10165;42.662;23.260;2022-07-23T00:24:46;94427.47;;;25.91;39.45
20009;BME280;10165;42.662;23.260;2022-07-23T00:27:33;94439.09;;;25.95;39.62
20009;BME280;10165;42.662;23.260;2022-07-23T00:30:00;94435.25;;;25.93;39.60
20009;BME280;10165;42.662;23.260;2022-07-23T00:32:27;94438.09;;;25.89;39.95
20009;BME280;10165;42.662;23.260;2022-07-23T00:35:14;94444.09;;;25.84;39.76
20009;BME280;10165;42.662;23.260;2022-07-23T00:37:40;94451.41;;;25.75;39.71
20009;BME280;10165;42.662;23.260;2022-07-23T00:40:08;94437.19;;;25.80;39.45
20009;BME280;10165;42.662;23.260;2022-07-23T00:42:35;94441.25;;;25.75;39.71
20009;BME280;10165;42.662;23.260;2022-07-23T00:45:02;94437.47;;;25.69;39.63
20009;BME280;10165;42.662;23.260;2022-07-23T00:47:29;94440.56;;;25.71;39.73
20009;BME280;10165;42.662;23.260;2022-07-23T00:49:56;94435.19;;;25.67;39.75
20009;BME280;10165;42.662;23.260;2022-07-23T00:52:23;94441.28;;;25.43;40.24
20009;BME280;10165;42.662;23.260;2022-07-23T00:54:50;94438.28;;;25.53;40.45
20009;BME280;10165;42.662;23.260;2022-07-23T00:57:17;94434.94;;;25.62;40.37
20009;BME280;10165;42.662;23.260;2022-07-23T00:59:44;94437.78;;;25.58;40.45
20009;BME280;10165;42.662;23.260;2022-07-23T01:02:11;94437.00;;;25.58;40.60
20009;BME280;10165;42.662;23.260;2022-07-23T01:04:38;94440.19;;;25.56;40.33
20009;BME280;10165;42.662;23.260;2022-07-23T01:07:04;94436.78;;;25.52;40.48
20009;BME280;10165;42.662;23.260;2022-07-23T01:09:31;94432.31;;;25.58;40.24
20009;BME280;10165;42.662;23.260;2022-07-23T01:11:58;94439.41;;;25.56;40.51
20009;BME280;10165;42.662;23.260;2022-07-23T01:14:25;94433.75;;;25.47;40.31
20009;BME280;10165;42.662;23.260;2022-07-23T01:16:53;94437.16;;;25.22;40.49
20009;BME280;10165;42.662;23.260;2022-07-23T01:19:20;94427.84;;;25.19;41.09
20009;BME280;10165;42.662;23.260;2022-07-23T01:21:49;94429.19;;;25.28;40.85
20009;BME280;10165;42.662;23.260;2022-07-23T01:24:17;94432.78;;;25.25;41.05
20009;BME280;10165;42.662;23.260;2022-07-23T01:26:48;94437.22;;;25.18;41.14
20009;BME280;10165;42.662;23.260;2022-07-23T01:29:15;94426.22;;;25.22;41.03
20009;BME280;10165;42.662;23.260;2022-07-23T01:31:43;94434.44;;;25.22;41.50
20009;BME280;10165;42.662;23.260;2022-07-23T01:34:10;94433.00;;;25.01;42.01
20009;BME280;10165;42.662;23.260;2022-07-23T01:36:37;94434.50;;;25.18;41.74
20009;BME280;10165;42.662;23.260;2022-07-23T01:39:05;94429.47;;;25.17;41.58
20009;BME280;10165;42.662;23.260;2022-07-23T01:41:33;94433.81;;;25.14;41.91
20009;BME280;10165;42.662;23.260;2022-07-23T01:44:00;94426.75;;;25.01;41.98
20009;BME280;10165;42.662;23.260;2022-07-23T01:46:27;94423.06;;;25.07;42.09
20009;BME280;10165;42.662;23.260;2022-07-23T01:48:54;94432.81;;;25.08;42.22
20009;BME280;10165;42.662;23.260;2022-07-23T01:51:21;94423.06;;;25.07;41.96
20009;BME280;10165;42.662;23.260;2022-07-23T01:53:47;94424.28;;;25.06;42.30
20009;BME280;10165;42.662;23.260;2022-07-23T01:56:14;94430.59;;;25.03;42.13
20009;BME280;10165;42.662;23.260;2022-07-23T01:58:41;94424.25;;;24.74;42.38
20009;BME280;10165;42.662;23.260;2022-07-23T02:01:08;94426.13;;;24.77;42.37
20009;BME280;10165;42.662;23.260;2022-07-23T02:03:36;94428.34;;;24.66;42.39
20009;BME280;10165;42.662;23.260;2022-07-23T02:06:02;94428.03;;;24.64;42.67
20009;BME280;10165;42.662;23.260;2022-07-23T02:08:29;94436.13;;;24.67;42.38
20009;BME280;10165;42.662;23.260;2022-07-23T02:10:56;94428.16;;;24.41;43.00
20009;BME280;10165;42.662;23.260;2022-07-23T02:13:23;94432.59;;;24.51;42.69
20009;BME280;10165;42.662;23.260;2022-07-23T02:15:49;94425.47;;;24.57;42.29
20009;BME280;10165;42.662;23.260;2022-07-23T02:18:16;94423.56;;;24.70;42.11
20009;BME280;10165;42.662;23.260;2022-07-23T02:20:43;94428.09;;;24.76;42.03
20009;BME280;10165;42.662;23.260;2022-07-23T02:23:11;94427.34;;;24.76;41.60
20009;BME280;10165;42.662;23.260;2022-07-23T02:25:38;94432.94;;;24.69;41.90
20009;BME280;10165;42.662;23.260;2022-07-23T02:28:04;94422.78;;;24.69;41.47
20009;BME280;10165;42.662;23.260;2022-07-23T02:30:31;94424.34;;;24.70;41.42
20009;BME280;10165;42.662;23.260;2022-07-23T02:32:58;94422.38;;;24.71;41.78
20009;BME280;10165;42.662;23.260;2022-07-23T02:35:25;94425.03;;;24.74;41.30
20009;BME280;10165;42.662;23.260;2022-07-23T02:37:51;94424.06;;;24.65;41.76
20009;BME280;10165;42.662;23.260;2022-07-23T02:40:18;94422.63;;;24.76;41.35
20009;BME280;10165;42.662;23.260;2022-07-23T02:42:45;94425.88;;;24.71;41.51
20009;BME280;10165;42.662;23.260;2022-07-23T02:45:12;94428.16;;;24.73;41.66
20009;BME280;10165;42.662;23.260;2022-07-23T02:47:39;94431.00;;;24.69;41.51
20009;BME280;10165;42.662;23.260;2022-07-23T02:50:06;94435.84;;;24.46;41.02
20009;BME280;10165;42.662;23.260;2022-07-23T02:52:33;94437.28;;;24.50;41.12
20009;BME280;10165;42.662;23.260;2022-07-23T02:55:00;94439.78;;;24.45;41.46
20009;BME280;10165;42.662;23.260;2022-07-23T02:57:27;94434.13;;;24.36;41.27
20009;BME280;10165;42.662;23.260;2022-07-23T02:59:53;94450.13;;;23.58;42.64
20009;BME280;10165;42.662;23.260;2022-07-23T03:02:20;94450.03;;;23.62;42.77
20009;BME280;10165;42.662;23.260;2022-07-23T03:04:47;94451.53;;;23.66;42.90
20009;BME280;10165;42.662;23.260;2022-07-23T03:07:13;94449.13;;;23.88;42.59
20009;BME280;10165;42.662;23.260;2022-07-23T03:09:40;94457.03;;;23.63;43.13
20009;BME280;10165;42.662;23.260;2022-07-23T03:12:07;94458.22;;;23.62;43.24
20009;BME280;10165;42.662;23.260;2022-07-23T03:14:40;94463.19;;;23.67;42.78
20009;BME280;10165;42.662;23.260;2022-07-23T03:17:08;94461.94;;;23.52;43.04
20009;BME280;10165;42.662;23.260;2022-07-23T03:19:35;94469.22;;;23.78;42.83
20009;BME280;10165;42.662;23.260;2022-07-23T03:22:04;94472.09;;;23.91;42.91
20009;BME280;10165;42.662;23.260;2022-07-23T03:24:31;94469.63;;;23.96;42.76
20009;BME280;10165;42.662;23.260;2022-07-23T03:27:16;94465.41;;;24.11;42.59
20009;BME280;10165;42.662;23.260;2022-07-23T03:29:43;94466.09;;;23.99;42.57
20009;BME280;10165;42.662;23.260;2022-07-23T03:32:09;94478.31;;;23.91;42.45
20009;BME280;10165;42.662;23.260;2022-07-23T03:34:36;94461.03;;;23.98;41.92
20009;BME280;10165;42.662;23.260;2022-07-23T03:37:04;94478.09;;;24.02;41.69
20009;BME280;10165;42.662;23.260;2022-07-23T03:39:31;94474.13;;;24.06;41.59
20009;BME280;10165;42.662;23.260;2022-07-23T03:41:58;94481.00;;;24.14;41.32
20009;BME280;10165;42.662;23.260;2022-07-23T03:44:25;94472.75;;;24.18;41.92
20009;BME280;10165;42.662;23.260;2022-07-23T03:46:52;94477.56;;;24.10;41.96
20009;BME280;10165;42.662;23.260;2022-07-23T03:49:19;94475.63;;;24.07;42.20
20009;BME280;10165;42.662;23.260;2022-07-23T03:51:45;94480.50;;;24.19;41.82
20009;BME280;10165;42.662;23.260;2022-07-23T03:54:13;94482.81;;;24.21;41.45
20009;BME280;10165;42.662;23.260;2022-07-23T03:56:39;94481.88;;;24.27;41.57
20009;BME280;10165;42.662;23.260;2022-07-23T03:59:06;94475.03;;;24.19;41.22
20009;BME280;10165;42.662;23.260;2022-07-23T04:01:33;94479.69;;;24.39;40.63
20009;BME280;10165;42.662;23.260;2022-07-23T04:04:00;94478.00;;;24.45;40.84
20009;BME280;10165;42.662;23.260;2022-07-23T04:06:27;94473.84;;;24.56;40.62
20009;BME280;10165;42.662;23.260;2022-07-23T04:08:53;94472.03;;;24.50;40.97
20009;BME280;10165;42.662;23.260;2022-07-23T04:11:20;94473.25;;;24.49;41.72
20009;BME280;10165;42.662;23.260;2022-07-23T04:13:47;94478.53;;;24.56;41.39
20009;BME280;10165;42.662;23.260;2022-07-23T04:16:14;94474.69;;;24.53;42.00
20009;BME280;10165;42.662;23.260;2022-07-23T04:18:40;94479.16;;;24.63;42.09
20009;BME280;10165;42.662;23.260;2022-07-23T04:21:07;94483.63;;;23.98;42.38
20009;BME280;10165;42.662;23.260;2022-07-23T04:23:34;94493.53;;;23.69;42.91
20009;BME280;10165;42.662;23.260;2022-07-23T04:26:00;94498.81;;;23.60;42.67
20009;BME280;10165;42.662;23.260;2022-07-23T04:28:27;94493.44;;;23.76;42.79
20009;BME280;10165;42.662;23.260;2022-07-23T04:30:59;94490.06;;;24.27;42.43
20009;BME280;10165;42.662;23.260;2022-07-23T04:33:26;94493.97;;;24.46;42.24
20009;BME280;10165;42.662;23.260;2022-07-23T04:35:52;94490.56;;;24.58;42.11
20009;BME280;10165;42.662;23.260;2022-07-23T04:38:19;94493.66;;;24.76;41.45
20009;BME280;10165;42.662;23.260;2022-07-23T04:40:46;94490.25;;;24.72;41.53
20009;BME280;10165;42.662;23.260;2022-07-23T04:43:13;94495.78;;;24.53;41.98
20009;BME280;10165;42.662;23.260;2022-07-23T04:45:40;94498.41;;;24.40;42.29
20009;BME280;10165;42.662;23.260;2022-07-23T04:48:09;94493.22;;;24.62;41.92
20009;BME280;10165;42.662;23.260;2022-07-23T04:50:36;94501.47;;;24.22;42.28
20009;BME280;10165;42.662;23.260;2022-07-23T04:53:02;94497.09;;;24.28;43.28
20009;BME280;10165;42.662;23.260;2022-07-23T04:55:29;94498.31;;;24.44;42.60
20009;BME280;10165;42.662;23.260;2022-07-23T04:57:56;94496.81;;;24.59;42.16
20009;BME280;10165;42.662;23.260;2022-07-23T05:00:23;94499.81;;;24.81;41.74
20009;BME280;10165;42.662;23.260;2022-07-23T05:02:50;94502.34;;;24.55;41.96
20009;BME280;10165;42.662;23.260;2022-07-23T05:05:16;94501.38;;;24.46;42.13
20009;BME280;10165;42.662;23.260;2022-07-23T05:07:43;94507.97;;;24.84;41.18
20009;BME280;10165;42.662;23.260;2022-07-23T05:10:10;94501.91;;;24.93;41.69
20009;BME280;10165;42.662;23.260;2022-07-23T05:12:36;94492.53;;;25.10;41.51
20009;BME280;10165;42.662;23.260;2022-07-23T05:15:03;94499.19;;;25.25;41.44
20009;BME280;10165;42.662;23.260;2022-07-23T05:17:30;94497.38;;;25.35;40.86
20009;BME280;10165;42.662;23.260;2022-07-23T05:19:57;94503.63;;;25.19;40.27
20009;BME280;10165;42.662;23.260;2022-07-23T05:22:26;94501.56;;;25.23;40.94
20009;BME280;10165;42.662;23.260;2022-07-23T05:24:53;94504.22;;;25.43;41.05
20009;BME280;10165;42.662;23.260;2022-07-23T05:27:20;94503.78;;;25.44;40.60
20009;BME280;10165;42.662;23.260;2022-07-23T05:29:47;94505.97;;;25.49;40.26
20009;BME280;10165;42.662;23.260;2022-07-23T05:32:14;94502.56;;;25.61;40.62
20009;BME280;10165;42.662;23.260;2022-07-23T05:38:21;94502.34;;;25.23;40.88
20009;BME280;10165;42.662;23.260;2022-07-23T05:40:48;94503.19;;;25.53;40.17
20009;BME280;10165;42.662;23.260;2022-07-23T05:43:14;94501.47;;;25.27;40.56
20009;BME280;10165;42.662;23.260;2022-07-23T05:45:41;94504.88;;;24.82;41.14
20009;BME280;10165;42.662;23.260;2022-07-23T05:48:08;94507.22;;;25.32;40.37
20009;BME280;10165;42.662;23.260;2022-07-23T05:50:34;94501.69;;;25.81;39.43
20009;BME280;10165;42.662;23.260;2022-07-23T05:53:01;94500.22;;;26.05;38.34
20009;BME280;10165;42.662;23.260;2022-07-23T05:55:28;94499.13;;;26.31;37.92
20009;BME280;10165;42.662;23.260;2022-07-23T05:57:58;94505.38;;;26.32;37.76
20009;BME280;10165;42.662;23.260;2022-07-23T06:00:26;94501.31;;;25.95;38.85
20009;BME280;10165;42.662;23.260;2022-07-23T06:02:53;94496.84;;;26.42;38.21
20009;BME280;10165;42.662;23.260;2022-07-23T06:05:21;94492.06;;;26.17;38.57
20009;BME280;10165;42.662;23.260;2022-07-23T06:07:48;94494.03;;;26.17;39.04
20009;BME280;10165;42.662;23.260;2022-07-23T06:10:15;94493.13;;;26.07;38.85
20009;BME280;10165;42.662;23.260;2022-07-23T06:12:41;94493.00;;;26.40;38.46
20009;BME280;10165;42.662;23.260;2022-07-23T06:15:09;94485.91;;;26.55;38.21
20009;BME280;10165;42.662;23.260;2022-07-23T06:17:37;94496.34;;;26.98;37.38
20009;BME280;10165;42.662;23.260;2022-07-23T06:20:07;94498.41;;;26.81;37.45
20009;BME280;10165;42.662;23.260;2022-07-23T06:22:34;94486.88;;;26.74;38.83
20009;BME280;10165;42.662;23.260;2022-07-23T06:25:01;94493.59;;;26.60;38.69
20009;BME280;10165;42.662;23.260;2022-07-23T06:27:28;94487.66;;;27.12;36.93
20009;BME280;10165;42.662;23.260;2022-07-23T06:29:55;94489.53;;;27.15;37.38
20009;BME280;10165;42.662;23.260;2022-07-23T06:32:21;94494.00;;;27.22;37.13
20009;BME280;10165;42.662;23.260;2022-07-23T06:34:48;94499.22;;;26.94;37.76
20009;BME280;10165;42.662;23.260;2022-07-23T06:37:15;94494.84;;;27.44;36.71
20009;BME280;10165;42.662;23.260;2022-07-23T06:39:43;94498.41;;;27.19;36.20
20009;BME280;10165;42.662;23.260;2022-07-23T06:42:10;94497.94;;;27.46;36.64
20009;BME280;10165;42.662;23.260;2022-07-23T06:44:38;94495.19;;;27.46;37.24
20009;BME280;10165;42.662;23.260;2022-07-23T06:47:05;94497.69;;;27.87;36.33
20009;BME280;10165;42.662;23.260;2022-07-23T06:49:32;94501.78;;;28.04;37.54
20009;BME280;10165;42.662;23.260;2022-07-23T06:51:58;94491.84;;;27.98;36.29
20009;BME280;10165;42.662;23.260;2022-07-23T06:54:25;94488.31;;;27.97;36.26
20009;BME280;10165;42.662;23.260;2022-07-23T06:56:52;94487.56;;;28.19;36.28
20009;BME280;10165;42.662;23.260;2022-07-23T06:59:18;94498.44;;;28.44;36.02
20009;BME280;10165;42.662;23.260;2022-07-23T07:01:45;94496.28;;;28.48;34.56
20009;BME280;10165;42.662;23.260;2022-07-23T07:04:12;94486.66;;;28.00;35.87
20009;BME280;10165;42.662;23.260;2022-07-23T07:06:39;94492.03;;;28.25;35.48
20009;BME280;10165;42.662;23.260;2022-07-23T07:09:05;94496.22;;;27.95;36.48
20009;BME280;10165;42.662;23.260;2022-07-23T07:11:32;94483.13;;;28.43;36.03
20009;BME280;10165;42.662;23.260;2022-07-23T07:13:59;94490.50;;;28.24;35.80
20009;BME280;10165;42.662;23.260;2022-07-23T07:16:26;94482.44;;;28.30;35.16
20009;BME280;10165;42.662;23.260;2022-07-23T07:18:58;94479.78;;;28.48;34.95
20009;BME280;10165;42.662;23.260;2022-07-23T07:21:25;94474.97;;;28.61;35.21
20009;BME280;10165;42.662;23.260;2022-07-23T07:23:52;94472.94;;;28.74;35.13
20009;BME280;10165;42.662;23.260;2022-07-23T07:26:18;94473.69;;;28.75;34.88
20009;BME280;10165;42.662;23.260;2022-07-23T07:28:45;94470.47;;;29.16;34.32
20009;BME280;10165;42.662;23.260;2022-07-23T07:31:12;94462.16;;;28.89;35.37
20009;BME280;10165;42.662;23.260;2022-07-23T07:33:39;94464.69;;;29.23;35.49
20009;BME280;10165;42.662;23.260;2022-07-23T07:36:05;94463.03;;;29.44;34.86
20009;BME280;10165;42.662;23.260;2022-07-23T07:38:32;94459.41;;;29.65;34.51
20009;BME280;10165;42.662;23.260;2022-07-23T07:40:59;94471.16;;;29.38;34.35
20009;BME280;10165;42.662;23.260;2022-07-23T07:43:26;94463.91;;;29.23;34.62
20009;BME280;10165;42.662;23.260;2022-07-23T07:45:52;94459.09;;;29.45;34.16
20009;BME280;10165;42.662;23.260;2022-07-23T07:48:19;94467.03;;;29.34;34.12
20009;BME280;10165;42.662;23.260;2022-07-23T07:50:46;94470.44;;;29.07;34.29
20009;BME280;10165;42.662;23.260;2022-07-23T07:53:15;94465.81;;;29.35;34.36
20009;BME280;10165;42.662;23.260;2022-07-23T07:55:41;94456.91;;;29.40;33.56
20009;BME280;10165;42.662;23.260;2022-07-23T07:58:16;94458.47;;;29.59;34.33
20009;BME280;10165;42.662;23.260;2022-07-23T08:00:43;94457.13;;;29.73;33.61
20009;BME280;10165;42.662;23.260;2022-07-23T08:03:10;94457.28;;;29.97;33.87
20009;BME280;10165;42.662;23.260;2022-07-23T08:05:37;94458.78;;;30.16;33.44
20009;BME280;10165;42.662;23.260;2022-07-23T08:08:04;94447.75;;;29.52;33.57
20009;BME280;10165;42.662;23.260;2022-07-23T08:10:31;94452.81;;;29.35;33.89
20009;BME280;10165;42.662;23.260;2022-07-23T08:12:58;94460.31;;;29.71;33.50
20009;BME280;10165;42.662;23.260;2022-07-23T08:15:28;94451.31;;;29.98;33.76
20009;BME280;10165;42.662;23.260;2022-07-23T08:17:56;94446.69;;;30.31;33.12
20009;BME280;10165;42.662;23.260;2022-07-23T08:20:24;94449.88;;;30.30;33.08
20009;BME280;10165;42.662;23.260;2022-07-23T08:22:56;94445.63;;;30.20;32.69
20009;BME280;10165;42.662;23.260;2022-07-23T08:25:27;94450.31;;;30.37;33.14
20009;BME280;10165;42.662;23.260;2022-07-23T08:27:54;94447.13;;;30.39;33.15
20009;BME280;10165;42.662;23.260;2022-07-23T08:30:22;94441.13;;;30.41;32.62
20009;BME280;10165;42.662;23.260;2022-07-23T08:33:00;94438.97;;;30.54;32.53
20009;BME280;10165;42.662;23.260;2022-07-23T08:35:33;94436.13;;;30.72;31.88
20009;BME280;10165;42.662;23.260;2022-07-23T08:38:03;94436.28;;;30.77;32.55
20009;BME280;10165;42.662;23.260;2022-07-23T08:40:33;94439.84;;;30.60;32.37
20009;BME280;10165;42.662;23.260;2022-07-23T08:43:05;94443.13;;;30.49;32.71
20009;BME280;10165;42.662;23.260;2022-07-23T08:45:37;94441.75;;;30.87;32.30
20009;BME280;10165;42.662;23.260;2022-07-23T08:48:07;94436.66;;;30.94;31.65
20009;BME280;10165;42.662;23.260;2022-07-23T08:50:36;94433.09;;;31.03;30.92
20009;BME280;10165;42.662;23.260;2022-07-23T08:53:06;94439.31;;;30.79;30.70
20009;BME280;10165;42.662;23.260;2022-07-23T08:55:33;94433.72;;;31.30;30.55
20009;BME280;10165;42.662;23.260;2022-07-23T08:58:01;94432.75;;;30.77;31.17
20009;BME280;10165;42.662;23.260;2022-07-23T09:00:28;94432.44;;;30.75;30.60
20009;BME280;10165;42.662;23.260;2022-07-23T09:02:55;94434.66;;;31.04;30.83
20009;BME280;10165;42.662;23.260;2022-07-23T09:05:21;94433.91;;;31.27;30.05
20009;BME280;10165;42.662;23.260;2022-07-23T09:08:04;94427.13;;;31.28;30.35
20009;BME280;10165;42.662;23.260;2022-07-23T09:10:53;94423.31;;;31.25;30.30
20009;BME280;10165;42.662;23.260;2022-07-23T09:15:54;94424.72;;;31.21;29.98
20009;BME280;10165;42.662;23.260;2022-07-23T09:18:41;94424.78;;;31.12;29.48
20009;BME280;10165;42.662;23.260;2022-07-23T09:21:24;94423.22;;;31.82;29.56
20009;BME280;10165;42.662;23.260;2022-07-23T09:23:58;94432.34;;;31.73;28.16
20009;BME280;10165;42.662;23.260;2022-07-23T09:26:38;94433.31;;;31.47;27.86
20009;BME280;10165;42.662;23.260;2022-07-23T09:31:45;94421.63;;;32.05;26.37
20009;BME280;10165;42.662;23.260;2022-07-23T09:34:14;94416.91;;;31.82;26.18
20009;BME280;10165;42.662;23.260;2022-07-23T09:36:42;94420.84;;;31.90;25.59
20009;BME280;10165;42.662;23.260;2022-07-23T09:39:10;94417.28;;;32.13;24.92
20009;BME280;10165;42.662;23.260;2022-07-23T09:41:39;94418.97;;;32.40;26.90
20009;BME280;10165;42.662;23.260;2022-07-23T09:44:08;94413.66;;;32.65;24.94
20009;BME280;10165;42.662;23.260;2022-07-23T09:46:36;94412.66;;;31.95;25.39
20009;BME280;10165;42.662;23.260;2022-07-23T09:49:14;94406.69;;;31.58;25.89
20009;BME280;10165;42.662;23.260;2022-07-23T09:51:50;94407.84;;;32.34;25.01
20009;BME280;10165;42.662;23.260;2022-07-23T09:56:49;94412.88;;;32.21;25.16
20009;BME280;10165;42.662;23.260;2022-07-23T09:59:16;94404.59;;;32.50;25.19
20009;BME280;10165;42.662;23.260;2022-07-23T10:01:46;94400.00;;;32.62;23.70
20009;BME280;10165;42.662;23.260;2022-07-23T10:04:14;94397.50;;;32.79;23.78
20009;BME280;10165;42.662;23.260;2022-07-23T10:06:42;94397.66;;;32.90;24.25
20009;BME280;10165;42.662;23.260;2022-07-23T10:09:12;94388.47;;;32.98;23.66
20009;BME280;10165;42.662;23.260;2022-07-23T10:11:39;94393.13;;;33.07;24.33
20009;BME280;10165;42.662;23.260;2022-07-23T10:14:05;94389.91;;;32.94;24.69
20009;BME280;10165;42.662;23.260;2022-07-23T10:16:32;94383.59;;;32.93;24.59
20009;BME280;10165;42.662;23.260;2022-07-23T10:18:59;94387.59;;;33.07;24.54
20009;BME280;10165;42.662;23.260;2022-07-23T10:21:34;94380.31;;;33.09;23.91
20009;BME280;10165;42.662;23.260;2022-07-23T10:27:20;94384.91;;;33.12;21.98
20009;BME280;10165;42.662;23.260;2022-07-23T10:29:57;94372.28;;;32.91;21.92
20009;BME280;10165;42.662;23.260;2022-07-23T10:35:13;94382.25;;;32.54;21.33
20009;BME280;10165;42.662;23.260;2022-07-23T10:37:49;94369.00;;;32.93;21.05
20009;BME280;10165;42.662;23.260;2022-07-23T10:40:19;94365.59;;;33.18;20.88
20009;BME280;10165;42.662;23.260;2022-07-23T10:42:48;94367.22;;;33.50;21.80
20009;BME280;10165;42.662;23.260;2022-07-23T10:45:35;94358.75;;;33.54;20.26
20009;BME280;10165;42.662;23.260;2022-07-23T10:48:17;94358.31;;;33.61;19.76
20009;BME280;10165;42.662;23.260;2022-07-23T10:51:06;94360.66;;;33.07;19.30
20009;BME280;10165;42.662;23.260;2022-07-23T10:59:16;94343.53;;;33.70;18.52
20009;BME280;10165;42.662;23.260;2022-07-23T11:01:42;94346.47;;;33.81;19.03
20009;BME280;10165;42.662;23.260;2022-07-23T11:04:09;94343.25;;;33.88;18.61
20009;BME280;10165;42.662;23.260;2022-07-23T11:15:11;94325.66;;;33.96;17.92
20009;BME280;10165;42.662;23.260;2022-07-23T11:20:23;94321.09;;;34.19;18.48
20009;BME280;10165;42.662;23.260;2022-07-23T11:22:59;94316.91;;;34.29;18.73
20009;BME280;10165;42.662;23.260;2022-07-23T11:27:55;94311.50;;;34.51;18.25
20009;BME280;10165;42.662;23.260;2022-07-23T11:35:43;94312.75;;;34.50;17.48
20009;BME280;10165;42.662;23.260;2022-07-23T11:38:14;94313.63;;;34.31;17.69
20009;BME280;10165;42.662;23.260;2022-07-23T11:40:43;94306.44;;;33.87;18.21
20009;BME280;10165;42.662;23.260;2022-07-23T11:43:11;94295.94;;;33.97;17.67
20009;BME280;10165;42.662;23.260;2022-07-23T11:48:08;94299.00;;;34.30;17.74
20009;BME280;10165;42.662;23.260;2022-07-23T11:50:36;94293.44;;;33.99;17.28
20009;BME280;10165;42.662;23.260;2022-07-23T11:53:03;94293.72;;;34.32;16.66
20009;BME280;10165;42.662;23.260;2022-07-23T11:55:30;94293.47;;;34.30;16.88
20009;BME280;10165;42.662;23.260;2022-07-23T11:57:56;94291.94;;;34.29;17.05
20009;BME280;10165;42.662;23.260;2022-07-23T12:00:28;94293.53;;;34.10;16.29
20009;BME280;10165;42.662;23.260;2022-07-23T12:02:58;94288.75;;;33.85;16.20
20009;BME280;10165;42.662;23.260;2022-07-23T12:05:44;94296.28;;;33.58;16.81
20009;BME280;10165;42.662;23.260;2022-07-23T12:08:11;94286.84;;;34.22;16.15
20009;BME280;10165;42.662;23.260;2022-07-23T12:10:43;94285.00;;;33.16;15.33
20009;BME280;10165;42.662;23.260;2022-07-23T12:13:11;94282.56;;;33.70;14.34
20009;BME280;10165;42.662;23.260;2022-07-23T12:15:43;94276.97;;;34.52;15.28
20009;BME280;10165;42.662;23.260;2022-07-23T12:18:12;94275.38;;;34.83;14.61
20009;BME280;10165;42.662;23.260;2022-07-23T12:20:43;94277.34;;;34.77;15.48
20009;BME280;10165;42.662;23.260;2022-07-23T12:23:11;94273.06;;;34.76;15.25
20009;BME280;10165;42.662;23.260;2022-07-23T12:25:46;94275.09;;;34.75;16.59
20009;BME280;10165;42.662;23.260;2022-07-23T12:30:47;94268.16;;;34.60;15.88
20009;BME280;10165;42.662;23.260;2022-07-23T12:33:24;94272.97;;;33.96;15.96
20009;BME280;10165;42.662;23.260;2022-07-23T12:35:54;94266.13;;;34.18;15.85
20009;BME280;10165;42.662;23.260;2022-07-23T12:38:22;94260.44;;;34.75;15.62
20009;BME280;10165;42.662;23.260;2022-07-23T12:43:46;94244.78;;;35.36;16.22
20009;BME280;10165;42.662;23.260;2022-07-23T12:46:18;94244.78;;;35.25;15.01
20009;BME280;10165;42.662;23.260;2022-07-23T12:51:17;94245.69;;;35.06;15.07
20009;BME280;10165;42.662;23.260;2022-07-23T12:53:50;94246.84;;;34.82;14.71
20009;BME280;10165;42.662;23.260;2022-07-23T12:56:28;94246.69;;;35.08;15.00
20009;BME280;10165;42.662;23.260;2022-07-23T12:58:58;94244.56;;;35.45;14.09
20009;BME280;10165;42.662;23.260;2022-07-23T13:01:27;94240.34;;;35.72;15.54
20009;BME280;10165;42.662;23.260;2022-07-23T13:04:05;94235.94;;;35.32;15.41
20009;BME280;10165;42.662;23.260;2022-07-23T13:06:44;94240.00;;;35.37;14.83
20009;BME280;10165;42.662;23.260;2022-07-23T13:09:19;94247.53;;;35.20;14.92
20009;BME280;10165;42.662;23.260;2022-07-23T13:11:47;94237.00;;;34.76;16.16
20009;BME280;10165;42.662;23.260;2022-07-23T13:14:14;94235.25;;;34.84;16.48
20009;BME280;10165;42.662;23.260;2022-07-23T13:16:42;94237.53;;;34.37;16.85
20009;BME280;10165;42.662;23.260;2022-07-23T13:19:20;94246.13;;;34.93;16.39
20009;BME280;10165;42.662;23.260;2022-07-23T13:21:53;94236.59;;;35.05;15.35
20009;BME280;10165;42.662;23.260;2022-07-23T13:24:21;94232.91;;;35.30;15.15
20009;BME280;10165;42.662;23.260;2022-07-23T13:26:48;94231.16;;;35.44;16.54
20009;BME280;10165;42.662;23.260;2022-07-23T13:29:17;94231.44;;;35.57;15.42
20009;BME280;10165;42.662;23.260;2022-07-23T13:31:46;94240.22;;;35.22;15.15
20009;BME280;10165;42.662;23.260;2022-07-23T13:34:14;94230.09;;;35.19;15.51
20009;BME280;10165;42.662;23.260;2022-07-23T13:36:41;94223.28;;;35.15;15.33
20009;BME280;10165;42.662;23.260;2022-07-23T13:39:10;94220.31;;;35.40;17.23
20009;BME280;10165;42.662;23.260;2022-07-23T13:41:38;94217.00;;;35.42;15.95
20009;BME280;10165;42.662;23.260;2022-07-23T13:44:05;94222.84;;;35.55;15.07
20009;BME280;10165;42.662;23.260;2022-07-23T13:46:34;94218.59;;;35.82;15.18
20009;BME280;10165;42.662;23.260;2022-07-23T13:49:02;94220.56;;;35.54;14.06